Stations météo

Publicité
Embrun, France (7591): Température de l'air & dewpoint: 16.07.2019 18:00:00 - 22.07.2019 18:00:00 (CEST)Embrun, France (7591): Température de l'air 5cm: 16.07.2019 18:00:00 - 22.07.2019 18:00:00 (CEST)Embrun, France (7591): Température de l'air -20cm & Température de l'air -100cm: 16.07.2019 18:00:00 - 22.07.2019 18:00:00 (CEST)Embrun, France (7591): Vitesse du vent & gusts: 16.07.2019 18:00:00 - 22.07.2019 18:00:00 (CEST)Embrun, France (7591): Direction du vent: 16.07.2019 18:00:00 - 22.07.2019 18:00:00 (CEST)Embrun, France (7591): visibility: 16.07.2019 18:00:00 - 22.07.2019 18:00:00 (CEST)Embrun, France (7591): Ensoleillement: 16.07.2019 18:00:00 - 22.07.2019 18:00:00 (CEST)Embrun, France (7591): Quantités de précipitations: 16.07.2019 18:00:00 - 22.07.2019 18:00:00 (CEST)
Date & Time tt [°C] td [°C] tt 5cm [°C] tt -20cm [°C] tt -100cm [°C] ff [km/h] ff [knt] fx [km/h] fx [knt] dd vv [km] sd [min] rr [mm]
22.07.2019 18:00:00 - - - - - - - - - - - - -
22.07.2019 17:00:00 33,9 10,5 39,5 22,4 18,3 14 8 28 15 SW 20 58 0,0
22.07.2019 16:00:00 34,2 10,1 41,8 22,3 18,3 15 8 32 17 SW 20 60 0,0
22.07.2019 15:00:00 33,2 10,5 41,5 22,3 18,3 16 9 31 17 SW 20 60 0,0
22.07.2019 14:00:00 32,4 11,0 40,3 22,3 18,3 16 9 29 15 SSW 20 60 0,0
22.07.2019 13:00:00 31,1 11,5 40,3 22,3 18,3 12 7 23 12 SSW 20 60 0,0
22.07.2019 12:00:00 28,8 12,2 38,5 22,3 18,3 9 5 - - SSW 20 57 0,0
22.07.2019 11:00:00 27,0 12,2 31,9 22,4 18,3 7 4 22 12 E 20 42 0,0
22.07.2019 10:00:00 25,0 12,2 24,4 22,5 18,3 14 8 31 17 NNE 20 60 0,0
22.07.2019 09:00:00 22,6 11,0 21,2 22,5 18,3 17 9 - - NNE 20 52 0,0
22.07.2019 08:00:00 20,1 10,8 17,6 22,6 18,3 - - - - - 20 15 0,0
22.07.2019 07:00:00 19,6 10,3 16,1 22,6 18,3 - - - - - 20 0 0,0
22.07.2019 06:00:00 18,3 10,4 15,4 22,7 18,3 - - - - - 20 0 0,0
22.07.2019 05:00:00 19,1 10,6 15,7 22,7 18,3 - - - - - 20 0 0,0
22.07.2019 04:00:00 19,4 10,9 16,1 22,7 18,3 - - - - - 20 0 0,0
22.07.2019 03:00:00 19,8 11,0 17,6 22,7 18,2 - - - - - 20 0 0,0
22.07.2019 02:00:00 20,4 11,6 17,2 22,7 18,2 - - - - - 20 0 0,0
22.07.2019 01:00:00 21,6 12,2 17,4 22,7 18,2 - - - - - 20 0 0,0
22.07.2019 00:00:00 23,4 12,4 19,4 22,7 18,2 - - - - - 20 0 0,0
21.07.2019 23:00:00 25,6 12,8 19,8 22,6 18,2 - - - - - 20 0 0,0
21.07.2019 22:00:00 25,1 11,6 20,9 22,5 18,2 - - - - - 20 0 0,0
21.07.2019 21:00:00 27,4 11,8 26,4 22,4 18,2 - - - - - 20 0 0,0
21.07.2019 20:00:00 29,3 11,4 28,7 22,3 18,2 - - - - - 20 41 0,0
21.07.2019 19:00:00 31,6 10,3 33,3 22,2 18,2 - - - - - 20 57 0,0
21.07.2019 18:00:00 31,9 10,6 34,0 22,0 18,2 - - - - - 20 54 0,0
21.07.2019 17:00:00 32,6 10,6 37,3 21,9 18,2 - - - - - 20 57 0,0
21.07.2019 16:00:00 32,5 10,5 40,2 21,8 18,2 - - - - - 20 60 0,0
21.07.2019 15:00:00 32,0 10,1 38,4 21,8 18,2 - - - - - 20 58 0,0
21.07.2019 14:00:00 30,6 11,5 37,8 21,7 18,2 - - - - - 20 56 0,0
21.07.2019 13:00:00 29,3 10,9 37,9 21,8 18,2 - - - - - 20 60 0,0
21.07.2019 12:00:00 27,1 13,1 32,9 21,8 18,2 - - - - - 20 48 0,0
21.07.2019 11:00:00 25,4 12,3 31,6 21,9 18,2 - - - - - 20 57 0,0
21.07.2019 10:00:00 22,3 12,5 21,4 22,0 18,2 4 2 22 12 E 20 34 0,0
21.07.2019 09:00:00 19,8 12,1 19,5 22,0 18,2 10 5 19 10 NE 20 41 0,0
21.07.2019 08:00:00 18,1 11,9 15,1 22,1 18,1 0 0 15 8 N 20 12 0,0
21.07.2019 07:00:00 16,2 11,1 13,4 22,2 18,2 10 5 16 8 NNE 20 0 0,0
21.07.2019 06:00:00 16,4 11,5 11,6 22,2 18,1 4 2 10 5 N 20 0 0,0
21.07.2019 05:00:00 17,0 11,5 12,8 22,3 18,2 0 0 7 4 N 20 0 0,0
21.07.2019 04:00:00 17,5 11,7 12,8 22,3 18,1 3 2 5 3 NNE 20 0 0,0
21.07.2019 03:00:00 18,2 11,0 12,8 22,3 18,1 2 1 4 2 S 20 0 0,0
21.07.2019 02:00:00 18,5 11,6 13,5 22,3 18,1 0 0 5 3 N 20 0 0,0
21.07.2019 01:00:00 19,8 10,8 14,3 22,3 18,2 0 0 6 3 N 20 0 0,0
21.07.2019 00:00:00 21,1 10,3 16,5 22,3 18,1 2 1 10 6 W 20 0 0,0
20.07.2019 23:00:00 21,6 10,4 18,8 22,2 18,1 8 4 17 9 S 20 0 0,0
20.07.2019 22:00:00 22,9 11,0 19,0 22,1 18,1 3 2 10 6 N 20 0 0,0
20.07.2019 21:00:00 25,2 10,6 24,2 22,0 18,1 6 4 21 12 SSW 20 0 0,0
20.07.2019 20:00:00 26,5 9,8 26,0 21,9 18,1 14 8 32 17 SSW 20 12 0,0
20.07.2019 19:00:00 27,8 8,6 28,0 21,8 18,1 11 6 31 17 SSW 20 14 0,0
20.07.2019 18:00:00 29,3 8,4 32,9 21,7 18,1 15 8 30 16 WSW 20 52 0,0
20.07.2019 17:00:00 30,5 7,0 37,1 21,6 18,1 15 8 37 20 WSW 20 60 0,0
20.07.2019 16:00:00 30,3 8,7 36,4 21,5 18,1 14 7 29 16 SSW 20 58 0,0
20.07.2019 15:00:00 29,2 9,3 34,2 21,5 18,1 18 10 34 19 SSW 20 60 0,0
20.07.2019 14:00:00 27,6 12,8 32,4 21,4 18,1 19 11 37 20 SSW 20 41 0,0
20.07.2019 13:00:00 27,7 13,2 32,4 21,4 18,1 22 12 37 20 SSW 20 52 0,0
20.07.2019 12:00:00 26,8 13,9 30,8 21,5 18,1 16 9 31 17 SSW 20 50 0,0
20.07.2019 11:00:00 24,9 12,5 32,0 21,6 18,1 6 3 12 7 S 20 60 0,0
20.07.2019 10:00:00 22,9 10,7 21,4 21,6 18,1 4 2 13 7 SSE 20 60 0,0
20.07.2019 09:00:00 19,9 10,9 18,2 21,7 18,1 7 4 16 9 ENE 20 60 0,0
20.07.2019 08:00:00 16,8 10,6 12,8 21,8 18,1 5 3 8 5 NE 20 19 0,0
20.07.2019 07:00:00 15,5 9,6 13,8 21,8 18,1 4 2 19 11 E 20 0 0,0
20.07.2019 06:00:00 16,2 9,4 13,7 21,9 18,1 9 5 23 12 NE 20 0 0,0
20.07.2019 05:00:00 16,5 9,7 13,3 21,9 18,1 10 6 17 9 NNE 20 0 0,0
20.07.2019 04:00:00 16,8 9,9 13,6 21,9 18,1 7 4 13 7 NNE 20 0 0,0
20.07.2019 03:00:00 17,2 10,8 13,5 22,0 18,1 8 4 13 7 NNE 18 0 0,0
20.07.2019 02:00:00 18,0 11,3 13,9 22,0 18,1 6 4 10 6 N 20 0 0,0
20.07.2019 01:00:00 18,9 10,7 13,8 22,0 18,1 3 2 5 3 N 20 0 0,0
20.07.2019 00:00:00 20,6 10,4 16,3 21,9 18,1 2 1 11 6 W 20 0 0,0
19.07.2019 23:00:00 22,0 9,2 17,1 21,8 18,1 6 3 13 7 SW 20 0 0,0
19.07.2019 22:00:00 23,3 9,3 21,4 21,8 18,1 8 4 19 10 S 20 0 0,0
19.07.2019 21:00:00 25,6 9,0 24,3 21,6 18,1 11 6 24 13 SW 20 0 0,0
19.07.2019 20:00:00 27,1 6,5 26,4 21,5 18,1 13 7 28 15 SW 20 37 0,0
19.07.2019 19:00:00 28,9 5,7 30,7 21,4 18,1 14 8 34 18 SSW 20 60 0,0
19.07.2019 18:00:00 29,4 6,1 32,4 21,3 18,0 16 9 33 18 SW 20 60 0,0
19.07.2019 17:00:00 29,3 6,6 35,9 21,2 18,0 19 11 34 19 SW 20 60 0,0
19.07.2019 16:00:00 29,5 8,0 36,7 21,1 18,1 21 12 40 22 SSW 20 60 0,0
19.07.2019 15:00:00 28,9 5,7 37,3 21,0 18,0 19 10 38 21 SW 20 60 0,0
19.07.2019 14:00:00 28,4 7,0 36,0 21,0 18,0 18 10 32 18 SSW 20 60 0,0
19.07.2019 13:00:00 27,4 8,8 35,5 21,0 18,0 17 9 29 16 SSW 20 60 0,0
19.07.2019 12:00:00 25,7 9,5 33,5 21,1 18,0 13 7 27 15 S 20 60 0,0
19.07.2019 11:00:00 22,8 10,2 30,9 21,2 18,0 8 4 15 8 SSW 20 60 0,0
19.07.2019 10:00:00 21,6 8,5 20,0 21,2 18,0 4 2 11 6 NE 20 60 0,0
19.07.2019 09:00:00 19,3 9,5 17,1 21,3 18,0 5 3 14 8 ESE 20 60 0,0
19.07.2019 08:00:00 15,6 8,6 10,7 21,4 18,0 10 5 16 9 NE 20 21 0,0
19.07.2019 07:00:00 13,0 7,7 8,4 21,5 18,0 5 3 12 6 NNE 20 0 0,0
19.07.2019 06:00:00 13,5 7,5 7,6 21,5 18,0 4 2 8 4 N 20 0 0,0
19.07.2019 05:00:00 13,7 7,7 7,7 21,6 18,0 0 0 4 2 N 20 0 0,0
19.07.2019 04:00:00 15,1 7,4 9,4 21,7 18,0 0 0 8 4 N 20 0 0,0
19.07.2019 03:00:00 15,6 7,6 9,6 21,7 18,0 3 2 6 4 N 20 0 0,0
19.07.2019 02:00:00 16,8 7,7 12,1 21,7 18,0 5 3 11 6 N 20 0 0,0
19.07.2019 01:00:00 17,7 8,0 12,7 21,7 18,0 6 3 8 5 N 20 0 0,0
19.07.2019 00:00:00 18,4 8,1 13,0 21,7 18,0 0 0 5 3 N 20 0 0,0
18.07.2019 23:00:00 19,7 8,1 14,0 21,6 18,0 0 0 11 6 N 20 0 0,0
18.07.2019 22:00:00 22,0 8,1 19,5 21,5 18,0 7 4 16 9 S 20 0 0,0
18.07.2019 21:00:00 24,0 7,6 22,9 21,4 18,0 10 6 23 12 SW 20 28 0,0
18.07.2019 20:00:00 25,4 8,0 25,3 21,3 18,0 11 6 25 14 SSW 20 41 0,0
18.07.2019 19:00:00 27,1 4,8 29,0 21,2 18,0 16 8 33 18 SW 20 58 0,0
18.07.2019 18:00:00 27,8 4,8 30,8 21,1 18,0 19 10 35 19 SW 20 56 0,0
18.07.2019 17:00:00 28,3 5,2 32,9 21,0 18,0 18 10 37 20 SW 20 57 0,0
18.07.2019 16:00:00 28,5 6,0 35,3 20,9 18,0 16 9 33 18 SW 20 60 0,0
18.07.2019 15:00:00 28,2 6,3 34,8 20,9 18,0 15 8 36 19 SW 20 60 0,0
18.07.2019 14:00:00 27,2 6,6 34,4 20,8 18,0 21 11 35 19 SSW 20 60 0,0
18.07.2019 13:00:00 26,4 6,4 32,4 20,9 18,0 16 9 32 18 SSW 20 60 0,0
18.07.2019 12:00:00 24,8 6,0 32,2 20,9 18,0 13 7 25 13 SSW 20 58 0,0
18.07.2019 11:00:00 22,8 7,7 29,5 21,0 18,0 11 6 18 10 SSW 20 60 0,0
18.07.2019 10:00:00 21,2 8,5 21,2 21,0 18,0 5 3 13 7 S 20 60 0,0
18.07.2019 09:00:00 19,7 9,0 18,7 21,2 18,0 3 1 9 5 SSE 20 48 0,0
18.07.2019 08:00:00 16,2 7,9 11,8 21,2 18,0 3 2 8 4 NE 20 25 0,0
18.07.2019 07:00:00 13,9 7,0 8,6 21,3 18,0 0 0 5 3 N 20 15 0,0
18.07.2019 06:00:00 13,7 6,8 8,6 21,3 18,0 0 0 6 3 N 20 0 0,0
18.07.2019 05:00:00 14,6 6,9 8,8 21,4 17,9 0 0 5 3 N 20 0 0,0
18.07.2019 04:00:00 15,7 6,9 11,3 21,4 18,0 5 3 11 6 NNW 20 0 0,0
18.07.2019 03:00:00 15,9 6,9 10,7 21,4 18,0 6 3 10 6 N 20 0 0,0
18.07.2019 02:00:00 16,5 6,9 11,2 21,4 18,0 4 2 8 4 NNW 20 0 0,0
18.07.2019 01:00:00 17,7 7,4 12,4 21,5 18,0 4 2 8 4 NNW 20 0 0,0
18.07.2019 00:00:00 19,2 7,6 14,1 21,4 17,9 2 1 10 6 W 20 0 0,0
17.07.2019 23:00:00 21,4 8,0 19,5 21,3 18,0 7 4 16 9 SSW 20 0 0,0
17.07.2019 22:00:00 21,8 9,3 20,0 21,3 18,0 7 4 21 11 S 20 0 0,0
17.07.2019 21:00:00 23,3 10,4 22,2 21,1 18,0 14 7 30 16 SSW 20 0 0,0
17.07.2019 20:00:00 25,0 10,5 24,4 21,0 17,9 15 8 30 16 SSW 20 11 0,0
17.07.2019 19:00:00 27,0 7,9 27,1 20,8 18,0 16 8 35 19 WSW 20 43 0,0
17.07.2019 18:00:00 28,6 7,2 31,3 20,7 17,9 18 10 35 19 SSW 20 58 0,0
17.07.2019 17:00:00 28,9 6,3 34,6 20,6 18,0 18 10 37 20 SW 20 60 0,0
17.07.2019 16:00:00 29,2 8,3 35,8 20,5 17,9 16 9 36 19 SSW 20 60 0,0
17.07.2019 15:00:00 28,6 8,8 35,2 20,4 18,0 18 10 34 18 SSW 20 60 0,0
17.07.2019 14:00:00 28,1 9,4 36,0 20,4 18,0 18 10 36 19 SSW 20 60 0,0
17.07.2019 13:00:00 27,0 10,2 34,1 20,4 18,0 18 10 34 19 SSW 20 60 0,0
17.07.2019 12:00:00 26,0 12,1 32,3 20,5 18,0 13 7 23 13 S 20 60 0,0
17.07.2019 11:00:00 22,9 11,3 29,7 20,5 18,0 8 4 14 8 SSW 20 60 0,0
17.07.2019 10:00:00 21,3 10,7 21,1 20,6 18,0 4 2 17 9 SSE 20 60 0,0
17.07.2019 09:00:00 19,8 10,8 18,5 20,6 17,9 7 4 18 10 E 20 60 0,0
17.07.2019 08:00:00 17,7 10,6 14,8 20,7 18,0 5 3 18 10 ENE 20 27 0,0
17.07.2019 07:00:00 16,3 9,7 14,7 20,7 18,0 18 10 29 16 N 20 0 0,0
17.07.2019 06:00:00 16,5 9,7 12,2 20,8 18,0 16 8 26 14 N 20 0 0,0
17.07.2019 05:00:00 15,6 10,1 10,2 20,8 18,0 9 5 15 8 NE 20 0 0,0
17.07.2019 04:00:00 15,7 10,2 12,9 20,8 18,0 7 4 25 13 NE 20 0 0,0
17.07.2019 03:00:00 16,5 10,6 14,1 20,8 18,0 7 4 12 7 NE 20 0 0,0
17.07.2019 02:00:00 16,7 10,5 12,3 20,8 18,0 5 3 8 4 NNE 20 0 0,0
17.07.2019 01:00:00 17,0 10,6 11,9 20,8 18,0 0 0 6 3 N 20 0 0,0
17.07.2019 00:00:00 18,5 10,8 14,4 20,8 18,0 4 2 7 4 NW 20 0 0,0
16.07.2019 23:00:00 20,2 10,9 17,1 20,7 18,0 0 0 16 8 N 20 0 0,0
16.07.2019 22:00:00 21,5 11,2 19,8 20,6 18,0 8 4 18 10 S 20 0 0,0
16.07.2019 21:00:00 23,5 10,2 22,6 20,5 18,0 14 7 26 14 S 20 4 0,0
16.07.2019 20:00:00 25,4 8,8 25,0 20,4 18,0 16 8 33 18 SW 20 27 0,0
16.07.2019 19:00:00 26,8 7,8 28,2 20,2 18,0 16 9 28 15 SSW 20 47 0,0
16.07.2019 18:00:00 27,6 6,9 29,9 20,1 18,0 18 10 31 17 SSW 20 60 0,0

tt = Température de l'air
td = dewpoint
tt 5cm = Température de l'air 5cm
tt -20cm = Température de l'air -20cm
tt -100cm = Température de l'air -100cm
ff = Vitesse du vent
fx = gusts
dd = Direction du vent
vv = visibility
sd = Ensoleillement
rr = Quantités de précipitations

stations d'obs. à proximité